Time;durP1;ratioP1;P1;durP2;ratioP2;P2;SDS_P1;SDS_P2;PMS_P1;PMS_P2;Temp;Humidity;BMP_temperature;BMP_pressure;BME280_temperature;BME280_humidity;BME280_pressure;Samples;Min_cycle;Max_cycle;Signal;HPM_P1;HPM_P2
2023/08/02 00:00:23;;;;;;;4.65;2.90;;;21.50;97.10;;;;;;7385523;19;20023;-81
2023/08/02 00:03:22;;;;;;;5.57;2.67;;;21.50;97.30;;;;;;7385143;19;20451;-80
2023/08/02 00:50:47;;;;;;;;;;;;;;;;;;;;;
2023/08/02 01:10:27;;;;;;;4.80;1.00;;;21.40;99.10;;;;;;3381277;19;13400675;-81
2023/08/02 01:13:04;;;;;;;15.93;1.30;;;21.30;99.40;;;;;;7416604;19;20005;-81
2023/08/02 01:15:34;;;;;;;2.35;1.25;;;21.40;99.90;;;;;;7428618;19;20095;-80
2023/08/02 01:18:11;;;;;;;2.08;0.98;;;21.40;99.90;;;;;;7436739;19;20247;-80
2023/08/02 01:20:51;;;;;;;2.42;1.25;;;21.30;99.90;;;;;;7418696;19;20361;-80
2023/08/02 01:23:37;;;;;;;8.30;1.40;;;21.20;99.90;;;;;;7418780;19;20031;-80
2023/08/02 01:26:07;;;;;;;2.88;1.00;;;21.30;99.90;;;;;;7418605;19;20006;-80
2023/08/02 01:28:47;;;;;;;1.67;1.00;;;21.30;99.90;;;;;;7416452;19;20006;-80
2023/08/02 01:31:19;;;;;;;2.10;0.90;;;21.40;99.90;;;;;;7415245;19;20014;-81
2023/08/02 01:33:52;;;;;;;1.33;0.98;;;21.40;99.90;;;;;;7417799;19;20063;-79
2023/08/02 01:36:25;;;;;;;2.75;1.02;;;21.40;99.90;;;;;;7436901;19;20006;-80
2023/08/02 01:39:15;;;;;;;0.80;0.80;;;21.40;99.90;;;;;;7416752;19;20006;-82
2023/08/02 01:41:56;;;;;;;1.67;1.08;;;21.30;99.90;;;;;;7426358;19;20019;-81
2023/08/02 01:44:33;;;;;;;1.80;1.20;;;21.30;99.90;;;;;;7435177;19;20007;-80
2023/08/02 01:47:39;;;;;;;;;;;;;;;;;;;;;
2023/08/02 01:50:12;;;;;;;3.28;1.60;;;21.40;99.90;;;;;;7440072;19;20002;-81
2023/08/02 01:52:49;;;;;;;3.17;1.63;;;21.30;99.90;;;;;;7434122;19;20032;-80
2023/08/02 01:55:21;;;;;;;3.53;1.38;;;21.30;99.90;;;;;;7416642;19;20006;-80
2023/08/02 01:58:03;;;;;;;;;;;;;;;;;;;;;
2023/08/02 02:00:48;;;;;;;3.22;1.58;;;21.20;99.90;;;;;;7436535;19;20006;-81
2023/08/02 02:03:20;;;;;;;2.55;1.35;;;21.30;99.90;;;;;;7435069;19;20007;-82
2023/08/02 02:06:10;;;;;;;3.45;1.60;;;21.30;99.90;;;;;;7415204;19;20027;-82
2023/08/02 02:08:42;;;;;;;6.90;1.90;;;21.30;99.90;;;;;;7415916;19;20010;-81
2023/08/02 02:49:18;;;;;;;2.15;1.27;;;21.20;99.90;;;;;;7381379;19;20394;-81
2023/08/02 02:51:47;;;;;;;2.35;1.25;;;21.10;99.90;;;;;;7382650;19;20044;-81
2023/08/02 02:54:19;;;;;;;1.88;1.33;;;21.10;99.90;;;;;;7402980;19;20003;-81
2023/08/02 02:56:48;;;;;;;2.70;1.33;;;21.10;99.90;;;;;;7383555;19;20041;-79
2023/08/02 02:59:16;;;;;;;1.20;1.10;;;21.20;99.90;;;;;;7382260;19;20010;-79
2023/08/02 03:01:45;;;;;;;1.73;1.50;;;21.20;99.90;;;;;;7382178;19;20010;-79
2023/08/02 03:04:14;;;;;;;2.05;1.02;;;21.30;99.90;;;;;;7382612;19;20003;-80
2023/08/02 03:06:50;;;;;;;1.58;0.95;;;21.30;99.90;;;;;;7384814;19;20014;-80
2023/08/02 03:09:34;;;;;;;2.60;0.85;;;21.20;99.90;;;;;;7404666;19;20019;-81
2023/08/02 03:15:17;;;;;;;1.75;0.93;;;21.10;99.90;;;;;;7383325;19;20046;-80
2023/08/02 03:17:46;;;;;;;1.58;0.73;;;21.00;99.90;;;;;;7385077;19;20007;-80
2023/08/02 03:21:09;;;;;;;;;;;;;;;;;;;;;
2023/08/02 03:40:19;;;;;;;4.10;1.38;;;21.00;99.90;;;;;;6868436;19;10712217;-82
2023/08/02 03:43:00;;;;;;;1.48;1.30;;;21.20;99.90;;;;;;7424549;19;20078;-82
2023/08/02 03:45:33;;;;;;;1.48;0.73;;;21.20;99.90;;;;;;7448353;19;20006;-81
2023/08/02 03:48:02;;;;;;;1.45;0.98;;;20.90;99.90;;;;;;7428370;19;20058;-79
2023/08/02 03:50:31;;;;;;;2.75;1.45;;;21.00;99.90;;;;;;7436977;19;20030;-79
2023/08/02 03:53:00;;;;;;;3.75;1.10;;;20.90;99.90;;;;;;7437290;19;20020;-80
2023/08/02 03:55:31;;;;;;;2.65;1.20;;;21.00;99.90;;;;;;7439592;19;20018;-80
2023/08/02 03:58:00;;;;;;;;;;;21.20;99.90;;;;;;7426522;19;20006;-80
2023/08/02 04:00:31;;;;;;;1.60;1.15;;;21.30;99.90;;;;;;7438368;19;19911;-80
2023/08/02 04:03:00;;;;;;;1.35;1.02;;;21.10;99.90;;;;;;7419477;19;20034;-80
2023/08/02 04:05:28;;;;;;;2.10;1.17;;;21.20;99.90;;;;;;7418451;19;20021;-80
2023/08/02 04:07:57;;;;;;;4.63;1.25;;;21.20;99.90;;;;;;7415827;19;20014;-79
2023/08/02 04:10:26;;;;;;;3.05;1.20;;;21.10;99.90;;;;;;7416278;19;20002;-80
2023/08/02 04:12:57;;;;;;;1.85;1.48;;;21.10;99.90;;;;;;7417914;19;20007;-79
2023/08/02 04:15:26;;;;;;;5.07;1.45;;;21.10;99.90;;;;;;7437175;19;20030;-80
2023/08/02 04:17:58;;;;;;;1.65;1.17;;;21.20;99.90;;;;;;7416367;19;20030;-79
2023/08/02 04:20:27;;;;;;;2.22;1.27;;;20.70;99.90;;;;;;7416866;19;19999;-80
2023/08/02 04:22:56;;;;;;;2.33;1.33;;;20.80;99.90;;;;;;7416071;19;19999;-81
2023/08/02 04:25:25;;;;;;;3.83;1.45;;;21.10;99.90;;;;;;7416681;19;20024;-80
2023/08/02 04:27:57;;;;;;;1.55;1.23;;;21.20;99.90;;;;;;7414378;19;20018;-80
2023/08/02 04:30:26;;;;;;;3.70;1.10;;;21.00;99.90;;;;;;7439191;19;20007;-80
2023/08/02 04:32:59;;;;;;;2.80;1.33;;;21.20;99.90;;;;;;7416791;19;20023;-81
2023/08/02 04:35:28;;;;;;;2.38;1.75;;;21.40;99.90;;;;;;7416451;19;20018;-79
2023/08/02 04:37:57;;;;;;;1.42;1.20;;;21.50;99.90;;;;;;7413743;19;20082;-80
2023/08/02 04:40:25;;;;;;;1.73;1.20;;;21.40;99.90;;;;;;7394814;19;20002;-81
2023/08/02 04:42:57;;;;;;;1.65;0.95;;;21.30;99.90;;;;;;7388418;19;20054;-80
2023/08/02 04:48:54;;;;;;;2.25;0.93;;;21.40;99.90;;;;;;7281026;19;2004777;-80
2023/08/02 04:51:27;;;;;;;0.98;0.90;;;21.50;99.90;;;;;;7410760;19;20329;-81
2023/08/02 04:56:37;;;;;;;1.27;1.00;;;21.00;99.90;;;;;;7385265;19;20007;-78
2023/08/02 04:59:13;;;;;;;2.38;1.00;;;21.10;99.90;;;;;;7386057;19;20002;-80
2023/08/02 05:02:07;;;;;;;2.17;1.60;;;21.10;99.90;;;;;;7386702;19;20017;-79
2023/08/02 05:04:41;;;;;;;0.93;0.90;;;21.30;99.90;;;;;;7385117;19;20014;-84
2023/08/02 05:07:10;;;;;;;3.80;1.05;;;21.20;99.90;;;;;;7384130;19;20127;-79
2023/08/02 05:09:39;;;;;;;1.33;0.90;;;21.30;99.90;;;;;;7386787;19;20210;-78
2023/08/02 05:12:09;;;;;;;2.25;1.02;;;21.30;99.90;;;;;;7408272;19;20011;-78
2023/08/02 05:14:40;;;;;;;1.60;1.08;;;21.30;99.90;;;;;;7385520;19;20407;-77
2023/08/02 05:17:09;;;;;;;;;;;21.30;99.90;;;;;;7385743;19;20007;-78
2023/08/02 05:19:37;;;;;;;4.40;1.35;;;21.50;99.90;;;;;;7386860;19;20358;-78
2023/08/02 05:22:07;;;;;;;1.30;0.93;;;21.60;99.90;;;;;;7383223;19;20006;-78
2023/08/02 05:24:35;;;;;;;1.38;0.95;;;21.60;99.90;;;;;;7386932;19;20014;-78
2023/08/02 05:27:04;;;;;;;6.50;1.00;;;21.70;99.90;;;;;;7408139;19;20006;-78
2023/08/02 05:29:36;;;;;;;2.03;1.10;;;21.60;99.90;;;;;;7383726;19;20003;-79
2023/08/02 05:32:08;;;;;;;2.08;1.10;;;21.50;99.90;;;;;;7386699;19;20002;-78
2023/08/02 05:34:37;;;;;;;2.50;1.00;;;21.50;99.90;;;;;;7386359;19;20010;-78
2023/08/02 05:37:07;;;;;;;2.28;1.13;;;21.40;99.90;;;;;;7388170;19;20034;-77
2023/08/02 05:39:35;;;;;;;3.25;0.95;;;21.40;99.90;;;;;;7385444;19;20014;-78
2023/08/02 05:42:04;;;;;;;3.20;1.33;;;21.20;99.90;;;;;;7409614;19;20014;-79
2023/08/02 05:44:36;;;;;;;2.50;1.35;;;21.40;99.90;;;;;;7386001;19;20013;-78
2023/08/02 05:47:09;;;;;;;3.13;1.38;;;21.30;99.90;;;;;;7385640;19;20074;-79
2023/08/02 05:49:37;;;;;;;3.97;1.67;;;21.30;99.90;;;;;;7385428;19;20027;-79
2023/08/02 05:52:07;;;;;;;1.50;1.27;;;21.20;99.90;;;;;;7393306;19;20002;-78
2023/08/02 05:54:36;;;;;;;2.25;1.40;;;21.20;99.90;;;;;;7396134;19;20022;-77
2023/08/02 05:57:05;;;;;;;2.90;1.60;;;21.40;99.90;;;;;;7419199;19;20011;-77
2023/08/02 05:59:33;;;;;;;5.93;1.67;;;21.40;99.90;;;;;;7402505;19;20002;-78
2023/08/02 06:02:02;;;;;;;3.80;1.42;;;21.50;99.90;;;;;;7396517;19;20006;-77
2023/08/02 06:04:38;;;;;;;2.95;1.60;;;21.60;99.90;;;;;;7386337;19;20007;-77
2023/08/02 06:07:07;;;;;;;2.70;1.40;;;21.40;99.90;;;;;;7384656;19;20014;-78
2023/08/02 06:09:36;;;;;;;6.57;1.95;;;21.40;99.90;;;;;;7385931;19;20006;-79
2023/08/02 06:12:06;;;;;;;2.13;1.33;;;21.20;99.90;;;;;;7409703;19;20007;-78
2023/08/02 06:14:34;;;;;;;2.03;1.40;;;21.30;99.90;;;;;;7384955;19;20014;-79
2023/08/02 06:17:03;;;;;;;2.55;1.33;;;21.30;99.90;;;;;;7383726;19;20003;-78
2023/08/02 06:19:35;;;;;;;3.58;1.40;;;21.50;99.90;;;;;;7383916;19;20003;-78
2023/08/02 06:22:03;;;;;;;3.83;1.45;;;21.60;99.90;;;;;;7382682;19;20030;-79
2023/08/02 06:24:35;;;;;;;3.30;1.20;;;21.70;99.90;;;;;;7398324;19;20014;-79
2023/08/02 06:27:04;;;;;;;10.05;2.28;;;21.80;99.90;;;;;;7404217;19;20002;-79
2023/08/02 06:29:32;;;;;;;1.42;1.05;;;21.70;99.90;;;;;;7382693;19;20062;-78
2023/08/02 06:32:01;;;;;;;5.07;3.03;;;21.80;99.90;;;;;;7384033;19;20038;-77
2023/08/02 06:34:30;;;;;;;6.97;1.50;;;21.80;99.90;;;;;;7382936;19;20003;-78
2023/08/02 06:37:03;;;;;;;2.42;1.35;;;21.60;99.90;;;;;;7382971;19;20010;-78
2023/08/02 06:39:33;;;;;;;1.88;1.27;;;21.70;99.90;;;;;;7404212;19;20015;-77
2023/08/02 06:42:02;;;;;;;1.92;1.30;;;21.50;99.90;;;;;;7383166;19;20011;-78
2023/08/02 06:44:31;;;;;;;3.03;0.98;;;21.60;99.90;;;;;;7382174;19;20016;-79
2023/08/02 06:46:59;;;;;;;2.80;0.98;;;21.60;99.90;;;;;;7383361;19;20011;-78
2023/08/02 06:49:28;;;;;;;1.13;1.08;;;21.70;99.90;;;;;;7383255;19;20282;-79
2023/08/02 06:51:57;;;;;;;1.38;0.82;;;21.70;99.90;;;;;;7382491;19;20015;-78
2023/08/02 06:54:29;;;;;;;2.65;1.10;;;21.60;99.90;;;;;;7404332;19;20010;-78
2023/08/02 06:56:57;;;;;;;1.95;0.90;;;21.50;99.90;;;;;;7382999;19;20038;-78
2023/08/02 06:59:26;;;;;;;1.02;0.80;;;21.60;99.90;;;;;;7383268;19;20003;-79
2023/08/02 07:01:56;;;;;;;1.33;0.90;;;21.30;99.90;;;;;;7383488;19;20018;-78
2023/08/02 07:04:25;;;;;;;4.38;0.90;;;21.30;99.90;;;;;;7383080;19;20007;-79
2023/08/02 07:06:54;;;;;;;3.20;1.00;;;21.40;99.90;;;;;;7381457;19;20751;-77
2023/08/02 07:09:22;;;;;;;2.63;0.82;;;21.60;99.90;;;;;;7402529;19;20030;-78
2023/08/02 07:11:57;;;;;;;1.17;0.68;;;21.60;99.90;;;;;;7382687;19;20034;-78
2023/08/02 07:14:26;;;;;;;2.35;0.80;;;21.80;99.90;;;;;;7382090;19;20003;-78
2023/08/02 07:16:55;;;;;;;1.38;0.77;;;21.70;99.90;;;;;;7381854;19;20030;-78
2023/08/02 07:19:24;;;;;;;2.30;0.90;;;21.70;99.90;;;;;;7382120;19;20006;-77
2023/08/02 07:21:52;;;;;;;1.05;0.60;;;21.80;99.90;;;;;;7381721;19;20020;-79
2023/08/02 07:24:22;;;;;;;1.58;0.60;;;21.80;99.90;;;;;;7402671;19;20240;-79
2023/08/02 07:26:54;;;;;;;1.38;0.70;;;22.00;99.90;;;;;;7382265;19;20010;-79
2023/08/02 07:29:24;;;;;;;2.22;0.82;;;22.00;99.90;;;;;;7380822;19;20003;-78
2023/08/02 07:31:53;;;;;;;6.32;0.77;;;22.10;99.90;;;;;;7384331;19;20007;-78
2023/08/02 07:34:22;;;;;;;0.50;0.40;;;22.10;99.90;;;;;;7381506;19;20002;-78
2023/08/02 07:36:52;;;;;;;3.92;0.70;;;21.90;99.90;;;;;;7377935;19;20028;-78
2023/08/02 07:39:21;;;;;;;0.97;0.57;;;21.90;99.90;;;;;;7401701;19;20026;-77
2023/08/02 07:41:52;;;;;;;1.77;0.63;;;21.90;99.90;;;;;;7381084;19;20247;-78
2023/08/02 07:44:23;;;;;;;6.80;0.70;;;22.00;99.90;;;;;;7381089;19;20385;-78
2023/08/02 07:46:52;;;;;;;0.60;0.40;;;22.10;99.90;;;;;;7380951;19;20003;-78
2023/08/02 07:49:21;;;;;;;1.23;0.70;;;22.20;99.90;;;;;;7379672;19;20082;-78
2023/08/02 07:51:50;;;;;;;1.15;0.60;;;22.20;99.90;;;;;;7380255;19;20003;-79
2023/08/02 07:54:19;;;;;;;0.73;0.50;;;21.90;99.90;;;;;;7402202;19;20215;-78
2023/08/02 07:56:48;;;;;;;0.80;0.50;;;22.00;99.90;;;;;;7390611;19;20002;-78
2023/08/02 07:59:16;;;;;;;0.80;0.50;;;22.20;99.90;;;;;;7395879;19;20066;-78
2023/08/02 08:01:48;;;;;;;0.52;0.40;;;22.20;99.90;;;;;;7395678;19;20003;-78
2023/08/02 08:04:17;;;;;;;1.05;0.47;;;22.20;99.90;;;;;;7396181;19;19999;-77
2023/08/02 08:06:47;;;;;;;0.95;0.47;;;22.20;99.90;;;;;;7395293;19;20014;-79
2023/08/02 08:09:20;;;;;;;1.05;0.32;;;22.10;99.90;;;;;;7402970;19;20664;-77
2023/08/02 08:11:49;;;;;;;0.40;0.40;;;22.20;99.90;;;;;;7379986;19;20046;-77
2023/08/02 08:14:18;;;;;;;2.70;0.70;;;22.40;99.90;;;;;;7380809;19;20045;-79
2023/08/02 08:16:49;;;;;;;1.73;0.70;;;22.50;99.90;;;;;;7389169;19;20514;-78
2023/08/02 08:19:18;;;;;;;4.88;0.45;;;22.40;99.90;;;;;;7388487;19;20009;-78
2023/08/02 08:21:48;;;;;;;2.38;0.60;;;22.40;99.90;;;;;;7388480;19;20023;-78
2023/08/02 08:24:17;;;;;;;0.38;0.38;;;22.40;99.90;;;;;;7405373;19;20027;-77
2023/08/02 08:26:45;;;;;;;1.02;0.47;;;22.40;99.90;;;;;;7388088;19;20003;-78
2023/08/02 08:29:16;;;;;;;5.82;0.63;;;22.40;99.90;;;;;;7386256;19;20026;-79
2023/08/02 08:31:45;;;;;;;1.42;0.45;;;22.40;99.90;;;;;;7385699;19;20006;-78
2023/08/02 08:34:16;;;;;;;1.83;0.60;;;22.40;99.90;;;;;;7384463;19;20011;-78
2023/08/02 08:36:45;;;;;;;2.85;0.70;;;22.50;99.90;;;;;;7384395;19;20010;-77
2023/08/02 08:39:14;;;;;;;2.83;0.60;;;22.40;99.90;;;;;;7405288;19;20003;-78
2023/08/02 08:41:43;;;;;;;1.27;0.40;;;22.40;99.90;;;;;;7386565;19;20003;-78
2023/08/02 08:44:12;;;;;;;0.70;0.50;;;22.50;99.90;;;;;;7386428;19;20052;-78
2023/08/02 08:46:42;;;;;;;1.02;0.50;;;22.30;99.90;;;;;;7387973;19;20071;-78
2023/08/02 08:49:11;;;;;;;4.43;0.43;;;22.40;99.90;;;;;;7384803;19;20006;-78
2023/08/02 08:51:46;;;;;;;4.57;0.60;;;22.50;99.90;;;;;;7384213;19;20023;-77
2023/08/02 08:54:21;;;;;;;2.35;0.40;;;22.60;99.90;;;;;;7406780;19;20007;-78
2023/08/02 08:56:50;;;;;;;1.55;0.40;;;22.50;99.90;;;;;;7387054;19;20272;-78
2023/08/02 08:59:20;;;;;;;0.73;0.47;;;22.50;99.90;;;;;;7385626;19;20076;-78
2023/08/02 09:01:49;;;;;;;2.63;0.43;;;22.40;99.90;;;;;;7385359;19;20010;-78
2023/08/02 09:04:18;;;;;;;1.30;0.47;;;22.40;99.90;;;;;;7385188;19;20037;-78
2023/08/02 09:06:49;;;;;;;0.52;0.40;;;22.60;99.90;;;;;;7386904;19;20015;-78
2023/08/02 09:09:18;;;;;;;1.10;0.50;;;22.70;99.90;;;;;;7405194;19;20003;-78
2023/08/02 09:11:48;;;;;;;4.05;0.40;;;22.80;99.90;;;;;;7386449;19;20007;-78
2023/08/02 09:14:19;;;;;;;2.67;0.57;;;23.00;99.90;;;;;;7386540;19;20291;-78
2023/08/02 09:17:05;;;;;;;3.10;0.50;;;22.80;98.90;;;;;;7386941;19;20011;-77
2023/08/02 09:19:36;;;;;;;0.52;0.50;;;23.00;99.20;;;;;;7385359;19;20010;-79
2023/08/02 09:22:18;;;;;;;0.40;0.40;;;23.00;98.60;;;;;;7384985;19;20023;-78
2023/08/02 09:24:52;;;;;;;0.68;0.68;;;23.20;98.60;;;;;;7383697;19;20007;-81
2023/08/02 09:27:21;;;;;;;2.03;0.60;;;23.10;97.40;;;;;;7405573;19;20274;-80
2023/08/02 09:29:51;;;;;;;2.17;0.55;;;23.20;97.40;;;;;;7384900;19;20006;-79
2023/08/02 09:32:19;;;;;;;0.50;0.50;;;23.20;97.30;;;;;;7385916;19;20010;-80
2023/08/02 09:34:52;;;;;;;5.80;0.40;;;23.20;96.90;;;;;;7386165;19;20388;-79
2023/08/02 09:37:31;;;;;;;0.50;0.50;;;23.50;96.30;;;;;;7385928;19;20002;-80
2023/08/02 09:40:00;;;;;;;0.93;0.60;;;23.50;95.60;;;;;;7387412;19;20370;-79
2023/08/02 09:42:30;;;;;;;0.77;0.50;;;23.60;95.10;;;;;;7408632;19;20002;-79
2023/08/02 09:45:01;;;;;;;1.75;0.43;;;23.80;94.40;;;;;;7389245;19;20003;-80
2023/08/02 09:47:31;;;;;;;0.83;0.60;;;23.80;94.30;;;;;;7389183;19;19998;-79
2023/08/02 09:50:53;;;;;;;0.63;0.40;;;23.70;93.60;;;;;;7383808;19;20374;-80
2023/08/02 09:56:46;;;;;;;4.32;0.40;;;23.30;91.90;;;;;;7336791;19;19999;-81
2023/08/02 09:59:16;;;;;;;1.08;0.60;;;23.40;91.20;;;;;;7403331;19;20036;-80
2023/08/02 10:01:48;;;;;;;1.30;0.50;;;23.30;90.90;;;;;;7385612;19;20011;-78
2023/08/02 10:04:19;;;;;;;6.25;0.88;;;23.40;91.50;;;;;;7397820;19;20249;-78
2023/08/02 10:06:55;;;;;;;0.80;0.43;;;23.50;92.60;;;;;;7399123;19;20036;-78
2023/08/02 10:09:28;;;;;;;6.05;0.85;;;23.50;91.40;;;;;;7419159;19;20014;-78
2023/08/02 10:12:04;;;;;;;4.47;1.00;;;23.40;91.00;;;;;;7396634;19;20025;-79
2023/08/02 10:14:35;;;;;;;3.72;0.75;;;23.10;91.30;;;;;;7396459;19;20029;-77
2023/08/02 10:17:04;;;;;;;1.20;0.73;;;22.90;90.90;;;;;;7393222;19;20010;-79
2023/08/02 10:19:35;;;;;;;2.53;0.70;;;22.80;90.40;;;;;;7382135;19;20019;-80
2023/08/02 10:22:09;;;;;;;5.93;1.00;;;23.00;90.40;;;;;;7381155;19;20050;-78
2023/08/02 10:24:38;;;;;;;6.22;1.00;;;23.00;90.50;;;;;;7381423;19;20240;-79
2023/08/02 10:27:12;;;;;;;3.30;1.13;;;23.10;88.90;;;;;;7404363;19;20112;-79
2023/08/02 10:29:42;;;;;;;5.45;1.02;;;23.20;89.70;;;;;;7381261;19;20006;-79
2023/08/02 10:32:17;;;;;;;8.10;1.00;;;23.20;90.10;;;;;;7380890;19;20439;-79
2023/08/02 10:34:54;;;;;;;6.07;1.05;;;23.20;89.80;;;;;;7383701;19;20011;-78
2023/08/02 10:37:24;;;;;;;5.15;1.25;;;23.30;89.70;;;;;;7381681;19;20032;-80
2023/08/02 10:39:57;;;;;;;5.43;0.90;;;23.30;88.30;;;;;;7383068;19;19992;-79
2023/08/02 10:42:32;;;;;;;9.77;0.98;;;23.30;87.20;;;;;;7403721;19;20006;-79
2023/08/02 10:45:19;;;;;;;4.00;1.10;;;23.30;88.00;;;;;;7383721;19;20003;-79
2023/08/02 10:47:48;;;;;;;9.65;1.42;;;23.40;88.50;;;;;;7383359;19;20002;-80
2023/08/02 10:50:49;;;;;;;7.43;1.33;;;23.30;86.80;;;;;;7382614;19;19999;-79
2023/08/02 10:53:18;;;;;;;;;;;23.30;86.20;;;;;;7384352;19;20007;-80
2023/08/02 10:56:20;;;;;;;3.42;1.45;;;23.50;85.60;;;;;;7383788;19;19918;-78
2023/08/02 10:58:54;;;;;;;10.48;1.65;;;23.60;84.50;;;;;;7382905;19;20003;-78
2023/08/02 11:01:23;;;;;;;5.68;1.83;;;23.60;82.50;;;;;;7383693;19;20027;-78
2023/08/02 11:03:52;;;;;;;7.05;1.80;;;23.50;79.90;;;;;;7381653;19;20026;-78
2023/08/02 11:06:34;;;;;;;8.55;1.85;;;23.40;78.50;;;;;;7402841;19;20006;-79
2023/08/02 11:09:03;;;;;;;5.93;1.83;;;23.50;79.00;;;;;;7382639;19;20007;-78
2023/08/02 11:11:34;;;;;;;12.48;2.20;;;23.50;77.20;;;;;;7380233;19;20007;-78
2023/08/02 11:14:06;;;;;;;5.78;2.00;;;23.30;76.70;;;;;;7384315;19;20027;-78
2023/08/02 11:16:41;;;;;;;8.50;1.70;;;23.30;76.70;;;;;;7385245;19;20019;-77
2023/08/02 11:19:11;;;;;;;6.25;1.77;;;23.40;77.20;;;;;;7381947;19;20066;-79
2023/08/02 11:21:40;;;;;;;8.90;2.00;;;23.30;77.90;;;;;;7382413;19;20006;-79
2023/08/02 11:24:09;;;;;;;17.27;2.70;;;23.30;78.30;;;;;;7403336;19;20353;-78
2023/08/02 11:26:38;;;;;;;10.45;1.70;;;23.30;76.10;;;;;;7382263;19;20248;-77
2023/08/02 11:29:12;;;;;;;7.43;1.80;;;23.30;74.80;;;;;;7383714;19;20043;-79
2023/08/02 11:31:41;;;;;;;7.28;1.80;;;23.50;75.30;;;;;;7383572;19;20235;-80
2023/08/02 11:34:15;;;;;;;8.38;1.90;;;23.40;74.80;;;;;;7384135;19;20024;-78
2023/08/02 11:36:46;;;;;;;9.05;2.40;;;23.40;75.60;;;;;;7383263;19;20007;-78
2023/08/02 11:39:18;;;;;;;;;;;23.50;75.70;;;;;;7405006;19;20011;-78
2023/08/02 11:41:47;;;;;;;10.43;1.75;;;23.80;76.40;;;;;;7381248;19;19914;-79
2023/08/02 11:44:23;;;;;;;8.80;2.17;;;23.80;73.80;;;;;;7380929;19;20007;-78
2023/08/02 11:46:56;;;;;;;8.88;1.92;;;23.70;75.60;;;;;;7381617;19;20006;-79
2023/08/02 11:49:25;;;;;;;15.23;2.33;;;23.40;75.10;;;;;;7381976;19;20010;-79
2023/08/02 11:51:54;;;;;;;13.38;1.95;;;23.30;73.80;;;;;;7387234;19;20350;-78
2023/08/02 11:54:23;;;;;;;12.07;2.17;;;23.30;73.90;;;;;;7408011;19;20003;-78
2023/08/02 11:56:52;;;;;;;9.50;1.83;;;23.20;75.00;;;;;;7387962;19;20011;-80
2023/08/02 11:59:23;;;;;;;12.25;2.22;;;23.20;75.00;;;;;;7387771;19;20420;-79
2023/08/02 12:01:52;;;;;;;12.40;2.50;;;23.30;75.10;;;;;;7387963;19;19998;-80
2023/08/02 12:04:23;;;;;;;12.55;2.55;;;23.30;74.50;;;;;;7394174;19;20447;-78
2023/08/02 12:06:54;;;;;;;8.33;2.10;;;23.50;75.50;;;;;;7402713;19;20029;-78
2023/08/02 12:09:43;;;;;;;15.75;3.08;;;23.60;74.40;;;;;;7424149;19;20006;-78
2023/08/02 12:12:12;;;;;;;10.23;2.33;;;23.70;75.70;;;;;;7403319;19;20024;-78
2023/08/02 12:14:44;;;;;;;9.40;1.90;;;23.60;75.30;;;;;;7403173;19;20006;-78
2023/08/02 12:17:19;;;;;;;11.40;2.30;;;23.60;75.30;;;;;;7390312;19;20007;-80
2023/08/02 12:19:49;;;;;;;10.48;2.03;;;23.80;75.80;;;;;;7387615;19;20003;-79
2023/08/02 12:22:19;;;;;;;14.53;2.27;;;23.60;75.10;;;;;;7388850;19;20015;-80
2023/08/02 12:25:06;;;;;;;8.00;2.15;;;23.40;75.50;;;;;;7388783;19;20067;-80
2023/08/02 12:27:37;;;;;;;14.25;2.38;;;23.40;76.40;;;;;;7385367;19;20023;-80
2023/08/02 12:30:15;;;;;;;13.15;2.72;;;23.40;77.70;;;;;;7406890;19;20018;-80
2023/08/02 12:32:45;;;;;;;8.65;2.35;;;23.40;77.00;;;;;;7387070;19;20024;-79
2023/08/02 12:35:14;;;;;;;9.57;2.28;;;23.70;77.50;;;;;;7386472;19;20018;-80
2023/08/02 12:37:47;;;;;;;8.00;2.38;;;23.80;74.90;;;;;;7386537;19;20377;-80
2023/08/02 12:40:17;;;;;;;13.10;2.50;;;23.70;73.60;;;;;;7386017;19;20003;-80
2023/08/02 12:42:46;;;;;;;12.60;2.65;;;23.70;73.00;;;;;;7384934;19;20029;-80
2023/08/02 12:45:18;;;;;;;16.55;2.60;;;23.40;72.60;;;;;;7405987;19;20455;-80
2023/08/02 12:47:47;;;;;;;15.43;2.13;;;23.30;74.10;;;;;;7387082;19;20014;-79
2023/08/02 12:53:12;;;;;;;8.90;1.73;;;23.50;73.50;;;;;;7387231;19;20275;-80
2023/08/02 12:55:41;;;;;;;12.90;1.70;;;23.60;72.50;;;;;;7386550;19;20011;-81
2023/08/02 12:58:13;;;;;;;6.90;1.60;;;23.50;71.40;;;;;;7385438;19;20025;-80
2023/08/02 13:00:47;;;;;;;16.15;2.30;;;23.60;71.20;;;;;;7383611;19;19999;-79
2023/08/02 13:03:16;;;;;;;6.65;2.08;;;23.70;72.30;;;;;;7406078;19;20093;-79
2023/08/02 13:05:49;;;;;;;11.65;2.20;;;23.80;71.60;;;;;;7387535;19;20039;-80
2023/08/02 13:08:23;;;;;;;17.27;2.30;;;23.80;73.20;;;;;;7388937;19;20066;-79
2023/08/02 13:10:52;;;;;;;7.47;2.15;;;24.00;73.70;;;;;;7386525;19;20386;-80
2023/08/02 13:13:25;;;;;;;15.02;2.30;;;24.30;72.70;;;;;;7386221;19;20006;-80
2023/08/02 13:15:57;;;;;;;9.93;2.22;;;24.50;73.20;;;;;;7387837;19;20019;-79
2023/08/02 13:18:28;;;;;;;14.13;2.58;;;24.70;72.10;;;;;;7409505;19;20099;-79
2023/08/02 13:20:59;;;;;;;18.20;2.33;;;24.60;71.30;;;;;;7387207;19;20014;-80
2023/08/02 13:23:28;;;;;;;9.80;1.95;;;24.40;71.60;;;;;;7388279;19;20006;-79
2023/08/02 13:25:57;;;;;;;11.63;1.90;;;24.30;71.70;;;;;;7388936;19;20014;-80
2023/08/02 13:28:27;;;;;;;10.48;2.00;;;24.00;71.30;;;;;;7389863;19;20397;-79
2023/08/02 13:30:59;;;;;;;10.98;2.10;;;24.00;71.90;;;;;;7386042;19;20006;-79
2023/08/02 13:33:28;;;;;;;10.60;1.80;;;23.90;72.50;;;;;;7408115;19;20014;-80
2023/08/02 13:35:57;;;;;;;6.80;1.98;;;23.90;73.60;;;;;;7387923;19;20107;-78
2023/08/02 13:38:27;;;;;;;11.13;1.92;;;24.10;72.60;;;;;;7387674;19;20242;-80
2023/08/02 13:40:56;;;;;;;9.95;2.17;;;24.10;71.70;;;;;;7389457;19;20007;-80
2023/08/02 13:43:26;;;;;;;8.73;2.00;;;24.00;72.10;;;;;;7386931;19;20009;-80
2023/08/02 13:46:02;;;;;;;14.27;2.08;;;24.00;72.40;;;;;;7384721;19;20011;-81
2023/08/02 13:48:31;;;;;;;9.90;1.80;;;23.60;73.50;;;;;;7404578;19;20002;-79
2023/08/02 13:51:00;;;;;;;17.90;2.50;;;23.60;74.40;;;;;;7384384;19;20015;-80
2023/08/02 13:53:29;;;;;;;20.00;2.10;;;23.70;75.00;;;;;;7384485;19;20098;-79
2023/08/02 13:56:00;;;;;;;8.82;1.98;;;23.90;76.30;;;;;;7384673;19;20027;-80
2023/08/02 13:58:33;;;;;;;12.07;2.28;;;24.00;73.90;;;;;;7384337;19;20020;-80
2023/08/02 14:01:18;;;;;;;16.17;2.58;;;23.90;73.60;;;;;;7384372;19;20003;-81
2023/08/02 14:03:59;;;;;;;;;;;;;;;;;;;;;
2023/08/02 14:06:28;;;;;;;9.07;1.92;;;23.90;71.70;;;;;;7410654;19;20010;-80
2023/08/02 14:08:59;;;;;;;9.18;1.98;;;23.80;72.80;;;;;;7399052;19;20043;-79
2023/08/02 14:11:30;;;;;;;15.90;2.47;;;23.70;74.40;;;;;;7398665;19;20006;-78
2023/08/02 14:13:59;;;;;;;;;;;23.60;74.90;;;;;;7398814;19;20054;-80
2023/08/02 14:16:33;;;;;;;10.75;2.00;;;23.60;75.30;;;;;;7398818;19;19926;-78
2023/08/02 14:19:04;;;;;;;13.30;2.35;;;23.50;74.10;;;;;;7388345;19;20031;-80
2023/08/02 14:21:33;;;;;;;12.95;1.95;;;23.40;74.70;;;;;;7391086;19;20247;-79
2023/08/02 14:24:02;;;;;;;11.98;2.25;;;23.30;74.50;;;;;;7403105;19;20235;-80
2023/08/02 14:26:32;;;;;;;20.05;2.38;;;23.60;75.00;;;;;;7382284;19;20014;-81
2023/08/02 14:29:08;;;;;;;7.65;2.17;;;23.60;74.60;;;;;;7382310;19;20428;-80
2023/08/02 14:31:44;;;;;;;8.82;1.73;;;23.70;74.40;;;;;;7382637;19;20062;-80
2023/08/02 14:34:13;;;;;;;14.30;2.33;;;23.90;74.60;;;;;;7382640;19;20006;-79
2023/08/02 14:36:46;;;;;;;9.80;1.98;;;23.80;74.80;;;;;;7381893;19;20350;-80
2023/08/02 14:39:16;;;;;;;11.70;2.30;;;24.00;75.60;;;;;;7403812;19;20037;-79
2023/08/02 14:41:45;;;;;;;7.40;1.70;;;24.30;75.00;;;;;;7382302;19;20076;-80
2023/08/02 14:44:17;;;;;;;15.10;2.47;;;24.40;73.30;;;;;;7382573;19;20003;-80
2023/08/02 14:46:52;;;;;;;6.55;1.75;;;24.30;73.60;;;;;;7382345;19;20007;-80
2023/08/02 14:49:26;;;;;;;16.83;2.42;;;24.40;73.00;;;;;;7381808;19;20675;-79
2023/08/02 14:51:55;;;;;;;15.55;1.95;;;24.50;72.50;;;;;;7382432;19;20026;-80
2023/08/02 14:54:24;;;;;;;9.55;1.73;;;24.30;72.60;;;;;;7405103;19;20007;-79
2023/08/02 14:56:53;;;;;;;7.93;1.60;;;23.90;74.00;;;;;;7383198;19;20227;-78
2023/08/02 14:59:23;;;;;;;16.92;1.70;;;23.90;74.30;;;;;;7382221;19;20007;-78
2023/08/02 15:01:59;;;;;;;5.10;1.30;;;23.90;74.70;;;;;;7384459;19;20020;-79
2023/08/02 15:04:28;;;;;;;6.25;1.30;;;23.80;74.70;;;;;;7382077;19;20007;-79
2023/08/02 15:07:00;;;;;;;4.43;1.10;;;23.70;75.30;;;;;;7381366;19;20010;-80
2023/08/02 15:09:30;;;;;;;7.93;1.30;;;23.90;75.60;;;;;;7402855;19;20386;-79
2023/08/02 15:11:59;;;;;;;5.95;1.25;;;23.60;75.40;;;;;;7382633;19;20011;-80
2023/08/02 15:14:28;;;;;;;3.95;1.23;;;23.60;75.60;;;;;;7383319;19;20017;-79
2023/08/02 15:17:01;;;;;;;10.35;1.27;;;23.60;75.50;;;;;;7383183;19;20234;-80
2023/08/02 15:19:33;;;;;;;10.55;1.90;;;23.90;74.90;;;;;;7382658;19;20378;-80
2023/08/02 15:22:02;;;;;;;6.55;1.58;;;23.90;75.30;;;;;;7382556;19;20026;-79
2023/08/02 15:24:31;;;;;;;13.88;1.70;;;23.90;75.30;;;;;;7403047;19;20006;-79
2023/08/02 15:27:00;;;;;;;7.30;1.50;;;23.70;75.60;;;;;;7382728;19;20009;-80
2023/08/02 15:29:32;;;;;;;7.22;1.50;;;23.70;77.20;;;;;;7382734;19;20023;-80